• Join FlightAware (Why Join?)
  • Login
  • US Flag 
07:43PM EDT


 

Airport Tracker/Info


-or-


 

Live Flight TrackerFlight Track Log ✈ SWA182 ✈ 16-Jun-2013 ✈ KLAS - KSLC

Flight Track Log - Related Links

Times and Time Zones

All times are in EDT time to prevent confusion due to time zone crossing. See the SWA182 flight status page for this flight to view local times or setup timezone preferences in your user account.

Time Position Orientation Groundspeed Altitude Reporting Facility
EDT Latitude Longitude Course Direction KTS MPH feet Rate Location/Type
01:32AM 36.0764 -115.1894 271° West 206 237 3,400  Level Los Angeles Center
01:32AM 36.0767 -115.2106 271° West 203 234 4,200 2,100 Climbing Los Angeles Center
01:33AM 36.0964 -115.2814 289° West 243 280 6,200 1,980 Climbing Los Angeles Center
01:34AM 36.1339 -115.2897 350° North 260 299 7,400 2,220 Climbing Los Angeles Center
01:34AM 36.1639 -115.2644 34° Northeast 279 321 8,500 2,160 Climbing Los Angeles Center
01:35AM 36.1864 -115.2206 58° Northeast 284 327 9,600 1,500 Climbing Los Angeles Center
01:36AM 36.1972 -115.1119 83° East 323 372 10,900 1,560 Climbing Los Angeles Center
01:37AM 36.1972 -114.9833 90° East 368 423 12,900 1,920 Climbing Los Angeles Center
01:38AM 36.1972 -114.8492 90° East 388 447 14,900 2,160 Climbing Los Angeles Center
01:39AM 36.2700 -114.7153 56° Northeast 416 479 17,300 2,040 Climbing Los Angeles Center
01:40AM 36.3628 -114.6256 38° Northeast 423 487 19,100 1,620 Climbing Los Angeles Center
01:41AM 36.4600 -114.5347 37° Northeast 435 501 20,700 1,560 Climbing Los Angeles Center
01:42AM 36.5628 -114.4389 37° Northeast 455 524 22,300 1,560 Climbing Los Angeles Center
01:43AM 36.6736 -114.3547 31° Northeast 465 535 23,900 1,440 Climbing Los Angeles Center
01:44AM 36.7858 -114.2686 32° Northeast 472 543 25,300 1,320 Climbing Los Angeles Center
01:45AM 36.9003 -114.1806 32° Northeast 480 552 26,600 1,500 Climbing Los Angeles Center
01:46AM 37.0153 -114.0892 32° Northeast 488 562 28,400 1,680 Climbing Los Angeles Center
01:47AM 37.1286 -114.0008 32° Northeast 481 554 30,100 1,500 Climbing Los Angeles Center
01:48AM 37.2419 -113.9117 32° Northeast 480 552 31,500 1,380 Climbing Los Angeles Center
01:49AM 37.3697 -113.8111 32° Northeast 474 545 33,000 720 Climbing Los Angeles Center
01:50AM 37.4836 -113.7208 32° Northeast 479 551 33,000  Level Los Angeles Center
01:51AM 37.5981 -113.6292 32° Northeast 484 557 33,000  Level Los Angeles Center
01:52AM 37.6900 -113.5556 32° Northeast 488 562 33,000  Level Salt Lake Center
01:53AM 37.8064 -113.4625 32° Northeast 490 564 33,000  Level Salt Lake Center
01:54AM 37.9247 -113.3753 30° Northeast 488 562 33,000  Level Salt Lake Center
01:55AM 38.0525 -113.3142 21° North 484 557 33,000  Level Salt Lake Center
01:56AM 38.1789 -113.2481 22° Northeast 487 560 33,000 -240 Level Salt Lake Center
01:57AM 38.3047 -113.1828 22° Northeast 486 559 32,600 -720 Descending Salt Lake Center
01:58AM 38.4297 -113.1192 22° Northeast 481 554 31,600 -840 Descending Salt Lake Center
01:59AM 38.5533 -113.0539 22° Northeast 480 552 31,000 -300 Descending Salt Lake Center
02:00AM 38.6792 -112.9881 22° Northeast 484 557 31,000  Level Salt Lake Center
02:01AM 38.8044 -112.9208 23° Northeast 486 559 31,000  Level Salt Lake Center
02:02AM 38.9281 -112.8575 22° Northeast 479 551 31,000  Level Salt Lake Center
02:03AM 39.0497 -112.7911 23° Northeast 475 547 31,000  Level Salt Lake Center
02:04AM 39.1722 -112.7278 22° Northeast 474 545 31,000  Level Salt Lake Center
02:05AM 39.3203 -112.6494 22° Northeast 477 549 31,000 -180 Level Salt Lake Center
02:06AM 39.4211 -112.5942 23° Northeast 479 551 30,700 -1,860 Descending Salt Lake Center
02:07AM 39.5669 -112.5175 22° Northeast 474 545 27,300 -3,000 Descending Salt Lake Center
02:08AM 39.6897 -112.4522 22° Northeast 476 548 24,700 -2,700 Descending Salt Lake Center
02:09AM 39.8069 -112.3883 23° Northeast 459 528 21,900 -2,760 Descending Salt Lake Center
02:10AM 39.9203 -112.3267 23° Northeast 441 507 19,200 -2,400 Descending Salt Lake Center
02:11AM 40.0269 -112.2681 23° Northeast 420 483 17,100 -1,200 Descending Salt Lake Center
02:12AM 40.1317 -112.2306 15° North 388 447 16,800 -960 Descending Salt Lake Center
02:13AM 40.2394 -112.1933 15° North 403 464 15,200 -1,440 Descending Salt Lake Center
02:14AM 40.3461 -112.1564 15° North 397 457 13,900 -780 Descending Salt Lake Center
02:15AM 40.4483 -112.1208 15° North 384 442 13,700 -900 Descending Salt Lake Center
02:16AM 40.5475 -112.0864 15° North 368 423 12,200 -1,440 Descending Salt Lake Center
02:17AM 40.6472 -112.0783 North 360 414 10,900 -660 Descending Salt Lake Center
02:18AM 40.7381 -112.0889 355° North 324 373 10,900 -120 Level Salt Lake Center
02:19AM 40.8117 -112.0992 354° North 263 303 10,700 -900 Descending Salt Lake Center
02:20AM 40.8825 -112.1067 355° North 255 293 9,200 -1,740 Descending Salt Lake Center
02:21AM 40.9269 -112.0639 36° Northeast 240 276 7,300 -1,680 Descending Salt Lake Center
02:22AM 40.9064 -111.9883 110° East 223 257 5,900 -960 Descending Salt Lake Center
02:23AM 40.8661 -111.9636 155° Southeast 165 190 5,400 -600 Descending Salt Lake Center
02:24AM 40.8217 -111.9619 178° South 158 182 4,700 -720 Descending Salt Lake Center
02:26AM 40.7833 -111.9667 North  Level FlightAware Approximate
02:33AM 40.7884 -111.9778 North  Level Estimated